createdAt,value
2022-12-31T00:01:25.814Z,100143.78
2022-12-31T00:03:52.867Z,100135.63
2022-12-31T00:06:23.844Z,100133.22
2022-12-31T00:08:51.858Z,100127.28
2022-12-31T00:11:18.777Z,100127.25
2022-12-31T00:13:46.768Z,100129.22
2022-12-31T00:16:19.841Z,100116.72
2022-12-31T00:18:48.499Z,100103.50
2022-12-31T00:21:16.174Z,100109.94
2022-12-31T00:23:43.359Z,100101.81
2022-12-31T00:26:12.382Z,100101.91
2022-12-31T00:28:39.650Z,100098.16
2022-12-31T00:31:12.621Z,100107.16
2022-12-31T00:33:40.205Z,100123.38
2022-12-31T00:36:13.229Z,100126.44
2022-12-31T00:38:41.315Z,100119.66
2022-12-31T00:41:08.138Z,100107.91
2022-12-31T00:43:35.436Z,100117.31
2022-12-31T00:46:02.859Z,100107.28
2022-12-31T00:48:29.505Z,100102.56
2022-12-31T00:50:56.876Z,100095.53
2022-12-31T00:53:25.579Z,100108.16
2022-12-31T00:55:52.170Z,100107.47
2022-12-31T00:58:18.841Z,100108.09
2022-12-31T01:00:45.493Z,100097.22
2022-12-31T01:03:12.190Z,100101.91
2022-12-31T01:05:38.783Z,100106.09
2022-12-31T01:08:06.075Z,100099.75
2022-12-31T01:10:50.958Z,100103.91
2022-12-31T01:13:17.750Z,100105.81
2022-12-31T01:15:44.501Z,100103.75
2022-12-31T01:18:11.610Z,100088.94
2022-12-31T01:20:41.355Z,100102.13
2022-12-31T01:23:09.041Z,100101.09
2022-12-31T01:25:40.169Z,100102.88
2022-12-31T01:28:06.760Z,100110.34
2022-12-31T01:30:33.271Z,100111.38
2022-12-31T01:33:00.181Z,100112.84
2022-12-31T01:35:26.730Z,100114.09
2022-12-31T01:37:53.240Z,100115.59
2022-12-31T01:40:19.976Z,100125.69
2022-12-31T01:42:54.446Z,100134.53
2022-12-31T01:45:21.231Z,100128.03
2022-12-31T01:47:51.735Z,100122.47
2022-12-31T01:50:23.242Z,100129.72
2022-12-31T01:52:56.887Z,100133.84
2022-12-31T01:55:26.118Z,100129.56
2022-12-31T01:58:01.379Z,100128.53
2022-12-31T02:03:19.602Z,100120.78
2022-12-31T02:05:55.028Z,100138.16
2022-12-31T02:08:21.998Z,100140.84
2022-12-31T02:10:48.528Z,100138.63
2022-12-31T02:13:15.705Z,100136.50
2022-12-31T02:16:09.579Z,100138.13
2022-12-31T02:18:50.386Z,100141.97
2022-12-31T02:21:33.518Z,100141.50
2022-12-31T02:24:35.818Z,100133.84
2022-12-31T02:27:34.346Z,100134.38
2022-12-31T02:30:17.201Z,100128.69
2022-12-31T02:33:22.227Z,100138.38
2022-12-31T02:36:24.071Z,100138.84
2022-12-31T02:38:51.712Z,100138.19
2022-12-31T02:41:38.968Z,100145.00
2022-12-31T02:44:22.486Z,100147.09
2022-12-31T02:47:13.501Z,100145.78
2022-12-31T02:50:23.058Z,100145.69
2022-12-31T02:53:14.383Z,100134.38
2022-12-31T02:55:52.425Z,100132.88
2022-12-31T02:58:56.823Z,100123.78
2022-12-31T03:01:52.280Z,100123.00
2022-12-31T03:04:32.707Z,100121.84
2022-12-31T03:07:12.527Z,100117.88
2022-12-31T03:09:39.342Z,100120.50
2022-12-31T03:12:28.451Z,100118.06
2022-12-31T03:14:55.065Z,100127.63
2022-12-31T03:17:21.811Z,100130.84
2022-12-31T03:20:06.921Z,100142.38
2022-12-31T03:22:37.497Z,100134.88
2022-12-31T03:25:29.259Z,100129.31
2022-12-31T03:27:56.057Z,100129.78
2022-12-31T03:30:24.066Z,100132.47
2022-12-31T03:32:51.404Z,100131.97
2022-12-31T03:35:20.649Z,100128.81
2022-12-31T03:37:48.702Z,100126.06
2022-12-31T03:40:16.523Z,100122.63
2022-12-31T03:42:43.142Z,100114.47
2022-12-31T03:45:11.489Z,100122.84
2022-12-31T03:47:38.385Z,100109.41
2022-12-31T03:50:06.632Z,100108.28
2022-12-31T03:52:33.219Z,100099.50
2022-12-31T03:54:59.751Z,100105.97
2022-12-31T03:57:26.380Z,100105.13
2022-12-31T03:59:52.938Z,100107.28
2022-12-31T04:02:24.668Z,100103.94
2022-12-31T04:04:54.897Z,100111.25
2022-12-31T04:07:21.616Z,100122.63
2022-12-31T04:09:48.183Z,100123.03
2022-12-31T04:12:15.104Z,100106.63
2022-12-31T04:14:41.667Z,100105.75
2022-12-31T04:17:08.337Z,100120.44
2022-12-31T04:19:34.926Z,100124.34
2022-12-31T04:22:01.814Z,100124.88
2022-12-31T04:24:28.461Z,100133.94
2022-12-31T04:26:55.044Z,100132.75
2022-12-31T04:29:21.607Z,100138.47
2022-12-31T04:31:48.190Z,100128.69
2022-12-31T04:34:14.917Z,100131.47
2022-12-31T04:36:41.474Z,100132.88
2022-12-31T04:39:08.313Z,100133.03
2022-12-31T04:41:34.925Z,100129.28
2022-12-31T04:44:01.649Z,100122.91
2022-12-31T04:46:30.826Z,100121.44
2022-12-31T04:48:58.196Z,100124.78
2022-12-31T04:51:26.253Z,100127.81
2022-12-31T04:53:53.037Z,100126.91
2022-12-31T04:56:19.811Z,100122.50
2022-12-31T04:58:46.656Z,100127.34
2022-12-31T05:01:13.864Z,100128.66
2022-12-31T05:03:41.016Z,100125.03
2022-12-31T05:06:12.322Z,100123.69
2022-12-31T05:08:38.948Z,100121.16
2022-12-31T05:11:05.833Z,100127.97
2022-12-31T05:13:33.497Z,100130.19
2022-12-31T05:16:01.485Z,100127.63
2022-12-31T05:18:28.728Z,100127.50
2022-12-31T05:20:55.387Z,100128.31
2022-12-31T05:23:22.912Z,100124.13
2022-12-31T05:25:49.516Z,100126.63
2022-12-31T05:28:16.496Z,100136.22
2022-12-31T05:30:43.714Z,100136.28
2022-12-31T05:33:10.519Z,100140.34
2022-12-31T05:35:37.138Z,100132.59
2022-12-31T05:38:03.828Z,100129.91
2022-12-31T05:40:30.584Z,100127.03
2022-12-31T05:42:57.097Z,100126.84
2022-12-31T05:45:30.150Z,100137.72
2022-12-31T05:47:57.831Z,100128.19
2022-12-31T05:50:24.496Z,100131.03
2022-12-31T05:52:51.063Z,100121.72
2022-12-31T05:55:17.868Z,100132.34
2022-12-31T05:57:44.399Z,100145.13
2022-12-31T06:00:11.804Z,100146.94
2022-12-31T06:02:38.476Z,100143.16
2022-12-31T06:05:05.632Z,100143.56
2022-12-31T06:07:32.316Z,100149.66
2022-12-31T06:09:58.988Z,100146.13
2022-12-31T06:12:25.610Z,100139.34
2022-12-31T06:14:52.134Z,100142.63
2022-12-31T06:17:19.133Z,100152.00
2022-12-31T06:19:46.944Z,100150.91
2022-12-31T06:22:13.551Z,100151.84
2022-12-31T06:24:40.208Z,100138.75
2022-12-31T06:27:06.749Z,100146.59
2022-12-31T06:29:33.236Z,100141.84
2022-12-31T06:31:59.887Z,100139.91
2022-12-31T06:34:26.416Z,100153.88
2022-12-31T06:36:52.907Z,100137.84
2022-12-31T06:39:19.492Z,100142.28
2022-12-31T06:41:46.057Z,100139.41
2022-12-31T06:44:12.710Z,100138.47
2022-12-31T06:46:39.567Z,100139.50
2022-12-31T06:49:06.200Z,100144.41
2022-12-31T06:51:32.743Z,100158.88
2022-12-31T06:53:59.425Z,100160.38
2022-12-31T06:56:33.892Z,100161.53
2022-12-31T06:59:01.460Z,100157.97
2022-12-31T07:01:51.255Z,100146.91
2022-12-31T07:04:48.495Z,100153.69
2022-12-31T07:07:35.373Z,100141.47
2022-12-31T07:10:08.998Z,100143.50
2022-12-31T07:12:58.936Z,100152.25
2022-12-31T07:16:05.792Z,100151.25
2022-12-31T07:18:54.975Z,100147.47
2022-12-31T07:21:33.077Z,100149.31
2022-12-31T07:23:59.936Z,100141.59
2022-12-31T07:26:57.049Z,100141.06
2022-12-31T07:29:48.398Z,100141.81
2022-12-31T07:32:35.969Z,100145.13
2022-12-31T07:35:37.188Z,100147.09
2022-12-31T07:38:26.508Z,100146.53
2022-12-31T07:41:15.755Z,100136.69
2022-12-31T07:44:22.299Z,100138.81
2022-12-31T07:46:57.619Z,100137.56
2022-12-31T07:49:25.998Z,100146.72
2022-12-31T07:51:53.446Z,100145.00
2022-12-31T07:54:20.864Z,100151.50
2022-12-31T07:56:48.017Z,100148.72
2022-12-31T07:59:32.418Z,100145.03
2022-12-31T08:02:06.220Z,100148.50
2022-12-31T08:04:40.719Z,100150.94
2022-12-31T08:07:30.085Z,100146.41
2022-12-31T08:10:15.620Z,100146.09
2022-12-31T08:12:47.251Z,100153.81
2022-12-31T08:15:15.460Z,100147.88
2022-12-31T08:17:42.844Z,100138.22
2022-12-31T08:20:14.795Z,100148.56
2022-12-31T08:23:00.143Z,100149.22
2022-12-31T08:25:38.357Z,100138.22
2022-12-31T08:28:14.001Z,100147.22
2022-12-31T08:31:00.440Z,100151.19
2022-12-31T08:33:37.983Z,100158.09
2022-12-31T08:36:13.599Z,100161.94
2022-12-31T08:39:07.945Z,100161.53
2022-12-31T08:41:42.515Z,100159.63
2022-12-31T08:44:57.382Z,100154.41
2022-12-31T08:47:40.419Z,100158.34
2022-12-31T08:50:12.937Z,100153.78
2022-12-31T08:52:39.722Z,100152.13
2022-12-31T08:55:06.843Z,100154.84
2022-12-31T08:57:46.324Z,100155.94
2022-12-31T09:00:18.235Z,100154.75
2022-12-31T09:02:50.378Z,100156.00
2022-12-31T09:05:25.408Z,100143.38
2022-12-31T09:08:22.565Z,100154.56
2022-12-31T09:11:10.443Z,100141.38
2022-12-31T09:13:45.839Z,100138.44
2022-12-31T09:16:28.441Z,100142.69
2022-12-31T09:18:57.535Z,100140.94
2022-12-31T09:21:24.137Z,100135.22
2022-12-31T09:23:50.930Z,100130.78
2022-12-31T09:26:43.033Z,100132.56
2022-12-31T09:29:09.533Z,100143.44
2022-12-31T09:31:45.043Z,100144.03
2022-12-31T09:34:30.629Z,100138.81
2022-12-31T09:37:02.548Z,100147.28
2022-12-31T09:39:58.371Z,100151.22
2022-12-31T09:42:40.230Z,100152.06
2022-12-31T09:45:34.679Z,100153.84
2022-12-31T09:48:26.723Z,100148.66
2022-12-31T09:51:19.181Z,100147.72
2022-12-31T09:54:06.371Z,100139.53
2022-12-31T09:56:42.371Z,100133.97
2022-12-31T09:59:43.841Z,100131.22
2022-12-31T10:02:29.608Z,100142.41
2022-12-31T10:05:03.980Z,100132.91
2022-12-31T10:07:40.397Z,100134.16
2022-12-31T10:10:16.657Z,100131.34
2022-12-31T10:13:01.919Z,100128.41
2022-12-31T10:15:41.439Z,100115.66
2022-12-31T10:18:16.726Z,100103.94
2022-12-31T10:21:02.272Z,100107.66
2022-12-31T10:23:48.641Z,100100.75
2022-12-31T10:26:32.079Z,100110.59
2022-12-31T10:29:13.903Z,100109.72
2022-12-31T10:32:04.497Z,100106.31
2022-12-31T10:34:55.087Z,100107.66
2022-12-31T10:37:30.008Z,100097.44
2022-12-31T10:40:34.750Z,100085.91
2022-12-31T10:43:26.692Z,100080.88
2022-12-31T10:46:24.169Z,100093.13
2022-12-31T10:49:16.443Z,100083.81
2022-12-31T10:52:04.661Z,100085.66
2022-12-31T10:54:43.699Z,100082.34
2022-12-31T10:57:34.314Z,100080.81
2022-12-31T11:00:12.914Z,100082.72
2022-12-31T11:02:42.574Z,100084.78
2022-12-31T11:05:47.109Z,100075.53
2022-12-31T11:08:39.949Z,100070.41
2022-12-31T11:11:34.235Z,100069.91
2022-12-31T11:14:26.992Z,100074.31
2022-12-31T11:17:01.123Z,100063.56
2022-12-31T11:19:39.855Z,100066.38
2022-12-31T11:22:25.043Z,100057.53
2022-12-31T11:25:17.427Z,100056.81
2022-12-31T11:28:08.997Z,100056.50
2022-12-31T11:30:57.294Z,100050.13
2022-12-31T11:33:50.574Z,100038.91
2022-12-31T11:36:36.081Z,100043.00
2022-12-31T11:39:33.427Z,100042.25
2022-12-31T11:42:20.772Z,100035.91
2022-12-31T11:44:51.651Z,100025.44
2022-12-31T11:47:44.719Z,100028.16
2022-12-31T11:50:38.899Z,100020.44
2022-12-31T11:53:33.542Z,100027.88
2022-12-31T11:56:20.133Z,100008.28
2022-12-31T11:58:52.953Z,100023.03
2022-12-31T12:01:32.524Z,100021.56
2022-12-31T12:03:59.861Z,100013.97
2022-12-31T12:06:32.411Z,100019.50
2022-12-31T12:09:05.568Z,100017.34
2022-12-31T12:11:35.760Z,100010.72
2022-12-31T12:14:19.098Z,100005.41
2022-12-31T12:16:45.883Z,100005.53
2022-12-31T12:19:18.443Z,100013.97
2022-12-31T12:21:49.092Z,100010.38
2022-12-31T12:24:29.284Z,100011.78
2022-12-31T12:26:57.504Z,100013.78
2022-12-31T12:29:28.781Z,100006.94
2022-12-31T12:32:19.578Z,100012.91
2022-12-31T12:34:49.818Z,100009.94
2022-12-31T12:37:27.958Z,100021.19
2022-12-31T12:40:03.472Z,100027.25
2022-12-31T12:42:30.603Z,100016.09
2022-12-31T12:45:18.940Z,100016.53
2022-12-31T12:47:48.159Z,100022.13
2022-12-31T12:50:24.847Z,100019.53
2022-12-31T12:53:22.100Z,100013.88
2022-12-31T12:56:02.936Z,100015.13
2022-12-31T12:59:09.074Z,100022.28
2022-12-31T13:01:52.614Z,100029.25
2022-12-31T13:04:43.458Z,100020.94
2022-12-31T13:07:36.779Z,100034.59
2022-12-31T13:10:26.556Z,100011.94
2022-12-31T13:13:25.937Z,100028.25
2022-12-31T13:16:22.426Z,100030.06
2022-12-31T13:19:09.256Z,100031.25
2022-12-31T13:21:57.984Z,100023.38
2022-12-31T13:24:51.788Z,100021.28
2022-12-31T13:27:42.655Z,100034.63
2022-12-31T13:30:40.284Z,100019.94
2022-12-31T13:33:15.558Z,100018.25
2022-12-31T13:35:48.102Z,100028.44
2022-12-31T13:38:22.796Z,100028.38
2022-12-31T13:40:51.959Z,100011.16
2022-12-31T13:43:39.568Z,100025.66
2022-12-31T13:46:19.196Z,100021.09
2022-12-31T13:48:59.761Z,100030.44
2022-12-31T13:51:41.916Z,100027.69
2022-12-31T13:54:39.468Z,100022.84
2022-12-31T13:57:18.966Z,100022.34
2022-12-31T13:59:50.107Z,100028.13
